Time;durP1;ratioP1;P1;durP2;ratioP2;P2;SDS_P1;SDS_P2;PMS_P1;PMS_P2;Temp;Humidity;BMP_temperature;BMP_pressure;BME280_temperature;BME280_humidity;BME280_pressure;Samples;Min_cycle;Max_cycle;Signal;HPM_P1;HPM_P2
2021/04/10 00:02:03;;;;;;;7.00;3.97;;;10.80;99.90;;;;;;5019044;28;20079;-78
2021/04/10 00:04:29;;;;;;;8.40;2.83;;;10.70;99.90;;;;;;5013306;28;20030;-77
2021/04/10 00:06:54;;;;;;;4.20;3.05;;;10.60;99.90;;;;;;5011594;28;20121;-77
2021/04/10 00:09:20;;;;;;;9.55;2.80;;;10.60;99.90;;;;;;5008889;28;20471;-77
2021/04/10 00:11:46;;;;;;;6.30;2.42;;;10.70;99.90;;;;;;5012812;28;20022;-78
2021/04/10 00:14:14;;;;;;;7.30;3.38;;;10.70;99.90;;;;;;5011547;28;20076;-78
2021/04/10 00:16:40;;;;;;;5.28;3.33;;;10.80;99.90;;;;;;5011814;28;20026;-77
2021/04/10 00:19:06;;;;;;;6.07;4.00;;;10.80;99.90;;;;;;5007492;28;20092;-78
2021/04/10 00:21:32;;;;;;;9.43;2.70;;;10.80;99.90;;;;;;5011503;28;20032;-77
2021/04/10 00:23:58;;;;;;;6.70;3.28;;;10.80;99.90;;;;;;5017327;28;20033;-78
2021/04/10 00:26:25;;;;;;;3.60;2.67;;;10.80;99.90;;;;;;4998298;28;20454;-77
2021/04/10 00:28:51;;;;;;;9.13;3.17;;;10.70;99.90;;;;;;5015834;28;20072;-77
2021/04/10 00:31:16;;;;;;;6.63;2.85;;;10.60;99.90;;;;;;5022556;28;20026;-78
2021/04/10 00:33:42;;;;;;;5.85;2.85;;;10.50;99.90;;;;;;5024133;28;20053;-78
2021/04/10 00:36:09;;;;;;;4.93;2.83;;;10.50;99.90;;;;;;5012310;28;20029;-78
2021/04/10 00:38:36;;;;;;;9.88;3.35;;;10.50;99.90;;;;;;5015566;28;20059;-78
2021/04/10 00:41:04;;;;;;;10.10;3.50;;;10.50;99.90;;;;;;5016578;28;20041;-78
2021/04/10 00:43:30;;;;;;;10.27;3.30;;;10.50;99.90;;;;;;5016102;28;20495;-78
2021/04/10 00:45:56;;;;;;;5.35;3.17;;;10.50;99.90;;;;;;5023429;28;20029;-78
2021/04/10 00:48:22;;;;;;;9.73;3.38;;;10.50;99.90;;;;;;5018696;28;20494;-78
2021/04/10 00:50:48;;;;;;;7.88;3.38;;;10.40;99.90;;;;;;5016479;28;20103;-78
2021/04/10 00:53:19;;;;;;;10.52;3.30;;;10.40;99.90;;;;;;5027148;28;20460;-78
2021/04/10 00:55:47;;;;;;;10.80;3.95;;;10.40;99.90;;;;;;5002821;28;20025;-78
2021/04/10 00:58:13;;;;;;;4.53;3.10;;;10.30;99.90;;;;;;5017086;28;20033;-78
2021/04/10 01:00:40;;;;;;;5.65;3.70;;;10.30;99.90;;;;;;5003998;28;20026;-77
2021/04/10 01:03:06;;;;;;;6.95;3.10;;;10.40;99.90;;;;;;5018496;28;20034;-77
2021/04/10 01:05:32;;;;;;;4.63;3.20;;;10.30;99.90;;;;;;5015093;28;20022;-78
2021/04/10 01:07:58;;;;;;;9.68;3.30;;;10.30;99.90;;;;;;5024798;28;20628;-76
2021/04/10 01:10:25;;;;;;;10.88;3.65;;;10.40;99.90;;;;;;5013286;28;20021;-78
2021/04/10 01:13:07;;;;;;;4.32;2.97;;;10.40;99.90;;;;;;5029484;28;20499;-78
2021/04/10 01:15:57;;;;;;;3.72;2.88;;;10.40;99.90;;;;;;5011999;28;20106;-76
2021/04/10 01:18:34;;;;;;;8.85;3.20;;;10.30;99.90;;;;;;5017726;28;20041;-77
2021/04/10 01:21:30;;;;;;;9.23;3.28;;;10.20;99.90;;;;;;5022715;28;20032;-78
2021/04/10 01:24:14;;;;;;;7.93;3.03;;;10.20;99.90;;;;;;5016607;28;20032;-77
2021/04/10 01:27:11;;;;;;;5.47;3.22;;;10.10;99.90;;;;;;5019057;28;20036;-77
2021/04/10 01:29:42;;;;;;;7.72;3.65;;;10.10;99.90;;;;;;5008459;28;20108;-77
2021/04/10 01:32:08;;;;;;;6.10;3.60;;;10.10;99.90;;;;;;5018137;28;20033;-77
2021/04/10 01:34:42;;;;;;;10.05;3.72;;;10.10;99.90;;;;;;5020376;28;20344;-77
2021/04/10 01:37:13;;;;;;;8.88;2.92;;;10.00;99.90;;;;;;5012312;28;20030;-77
2021/04/10 01:39:40;;;;;;;9.77;3.75;;;10.00;99.90;;;;;;5005589;28;20026;-78
2021/04/10 01:42:08;;;;;;;12.10;3.05;;;10.00;99.90;;;;;;5023616;28;20086;-77
2021/04/10 01:44:36;;;;;;;16.33;3.70;;;10.00;99.90;;;;;;5020260;28;20383;-77
2021/04/10 01:47:04;;;;;;;9.73;3.90;;;10.00;99.90;;;;;;5008618;28;20034;-77
2021/04/10 01:49:30;;;;;;;5.53;2.63;;;10.00;99.90;;;;;;5026494;28;20105;-77
2021/04/10 01:51:57;;;;;;;4.80;3.40;;;10.00;99.90;;;;;;5047368;28;20017;-78
2021/04/10 01:54:23;;;;;;;7.35;3.03;;;9.90;99.90;;;;;;5016834;28;20022;-77
2021/04/10 01:56:50;;;;;;;3.92;2.67;;;9.90;99.90;;;;;;5018335;28;20096;-78
2021/04/10 01:59:16;;;;;;;6.03;2.47;;;9.80;99.90;;;;;;5020799;28;20121;-77
2021/04/10 02:01:46;;;;;;;7.20;2.75;;;9.70;99.90;;;;;;5021473;28;20018;-77
2021/04/10 02:04:13;;;;;;;12.93;3.45;;;9.80;99.90;;;;;;5028596;28;20516;-76
2021/04/10 02:06:40;;;;;;;15.63;3.83;;;9.80;99.90;;;;;;5026516;28;20028;-76
2021/04/10 02:09:07;;;;;;;7.97;2.95;;;9.80;99.90;;;;;;5021079;28;20089;-77
2021/04/10 02:11:33;;;;;;;7.57;2.95;;;9.70;99.90;;;;;;5014758;28;20491;-77
2021/04/10 02:14:02;;;;;;;5.63;2.67;;;9.80;99.90;;;;;;5022123;28;20041;-77
2021/04/10 02:16:28;;;;;;;4.55;2.33;;;9.80;99.90;;;;;;5019023;28;20044;-77
2021/04/10 02:18:54;;;;;;;6.88;3.13;;;9.80;99.90;;;;;;5028716;28;20025;-78
2021/04/10 02:21:26;;;;;;;10.40;2.50;;;9.80;99.90;;;;;;5002479;28;20078;-77
2021/04/10 02:23:53;;;;;;;18.70;2.83;;;9.90;99.90;;;;;;5025733;28;20151;-77
2021/04/10 02:26:20;;;;;;;9.23;3.47;;;9.90;99.90;;;;;;5020660;28;20022;-77
2021/04/10 02:28:47;;;;;;;7.72;3.03;;;9.90;99.90;;;;;;5023989;28;20025;-77
2021/04/10 02:31:29;;;;;;;5.30;2.42;;;10.00;99.90;;;;;;5012824;28;20026;-77
2021/04/10 02:34:06;;;;;;;6.70;2.50;;;10.00;99.90;;;;;;5008682;28;20079;-76
2021/04/10 02:36:34;;;;;;;10.20;2.78;;;10.10;99.90;;;;;;5007508;28;20038;-78
2021/04/10 02:39:00;;;;;;;12.07;2.85;;;10.10;99.90;;;;;;5019630;28;20030;-77
2021/04/10 02:41:27;;;;;;;8.98;2.72;;;10.20;99.90;;;;;;5016070;28;20522;-77
2021/04/10 02:44:03;;;;;;;6.50;2.30;;;10.20;99.90;;;;;;5024558;28;20038;-77
2021/04/10 02:46:34;;;;;;;8.15;2.72;;;10.30;99.90;;;;;;5020968;28;20081;-77
2021/04/10 02:49:03;;;;;;;4.40;2.45;;;10.40;99.90;;;;;;5021192;28;20049;-77
2021/04/10 02:51:50;;;;;;;9.80;2.65;;;10.50;99.90;;;;;;5020968;28;20018;-77
2021/04/10 02:54:21;;;;;;;7.43;2.92;;;10.60;99.90;;;;;;5015677;28;20025;-77
2021/04/10 02:57:14;;;;;;;4.03;2.58;;;10.70;99.90;;;;;;5019034;28;20088;-77
2021/04/10 02:59:43;;;;;;;8.77;3.00;;;10.60;99.90;;;;;;5019060;28;20042;-77
2021/04/10 03:02:12;;;;;;;6.80;3.03;;;10.60;99.90;;;;;;5021494;28;20054;-77
2021/04/10 03:04:41;;;;;;;14.40;3.55;;;10.40;99.90;;;;;;5024247;28;20029;-77
2021/04/10 03:07:08;;;;;;;13.00;3.22;;;10.40;99.90;;;;;;5023872;28;20036;-77
2021/04/10 03:09:41;;;;;;;7.05;3.40;;;10.20;99.90;;;;;;5022384;28;20030;-77
2021/04/10 03:12:09;;;;;;;8.27;3.00;;;10.20;99.90;;;;;;5027330;28;20080;-77
2021/04/10 03:14:35;;;;;;;11.00;2.70;;;10.20;99.90;;;;;;5030550;28;20025;-77
2021/04/10 03:17:03;;;;;;;9.75;3.05;;;10.20;99.90;;;;;;5019270;28;20040;-77
2021/04/10 03:19:30;;;;;;;12.75;3.25;;;10.30;99.90;;;;;;5022604;28;20036;-78
2021/04/10 03:21:56;;;;;;;8.40;3.28;;;10.30;99.90;;;;;;5021315;28;20025;-77
2021/04/10 03:24:22;;;;;;;18.65;3.42;;;10.30;99.90;;;;;;5032743;28;20105;-76
2021/04/10 03:26:48;;;;;;;7.40;2.45;;;10.20;99.90;;;;;;5009061;28;20038;-77
2021/04/10 03:29:15;;;;;;;6.57;3.03;;;10.20;99.90;;;;;;5014879;28;20350;-77
2021/04/10 03:31:41;;;;;;;8.27;2.65;;;10.30;99.90;;;;;;5012935;28;20033;-77
2021/04/10 03:34:07;;;;;;;14.48;4.03;;;10.30;99.90;;;;;;5014982;28;20116;-77
2021/04/10 03:36:33;;;;;;;11.35;2.65;;;10.40;99.90;;;;;;5017213;28;20251;-77
2021/04/10 03:39:00;;;;;;;8.40;3.05;;;10.50;99.90;;;;;;5019311;28;20068;-76
2021/04/10 03:41:26;;;;;;;12.40;4.55;;;10.50;99.90;;;;;;5004401;28;20058;-76
2021/04/10 03:43:51;;;;;;;18.92;7.40;;;10.50;99.90;;;;;;5017845;28;20034;-77
2021/04/10 03:46:17;;;;;;;18.98;8.43;;;10.50;99.90;;;;;;5012101;28;20025;-78
2021/04/10 03:48:43;;;;;;;14.65;5.72;;;10.50;99.90;;;;;;5020513;28;20025;-78
2021/04/10 03:51:09;;;;;;;10.43;4.38;;;10.50;99.90;;;;;;5015552;28;20022;-77
2021/04/10 03:53:34;;;;;;;14.07;3.05;;;10.40;99.90;;;;;;5013376;28;20090;-77
2021/04/10 03:56:00;;;;;;;11.68;2.95;;;10.30;99.90;;;;;;5009420;28;20061;-78
2021/04/10 03:58:26;;;;;;;8.43;2.53;;;10.20;99.90;;;;;;5023471;28;20017;-78
2021/04/10 04:00:52;;;;;;;9.05;3.00;;;10.10;99.90;;;;;;5020730;28;20065;-77
2021/04/10 04:03:18;;;;;;;11.48;3.42;;;10.10;99.90;;;;;;5019819;28;20098;-77
2021/04/10 04:05:43;;;;;;;7.90;2.60;;;10.10;99.90;;;;;;5019834;28;20030;-78
2021/04/10 04:08:09;;;;;;;5.78;2.63;;;10.10;99.90;;;;;;5010391;28;20028;-78
2021/04/10 04:10:35;;;;;;;6.22;3.33;;;10.10;99.90;;;;;;5016902;28;20028;-78
2021/04/10 04:13:00;;;;;;;6.10;2.63;;;10.10;99.90;;;;;;5014477;28;20446;-77
2021/04/10 04:15:26;;;;;;;10.48;5.13;;;10.20;99.90;;;;;;5020610;28;20490;-77
2021/04/10 04:17:52;;;;;;;6.57;3.15;;;10.20;99.90;;;;;;5019813;28;20033;-77
2021/04/10 04:20:18;;;;;;;7.88;3.97;;;10.20;99.90;;;;;;5017586;28;20062;-77
2021/04/10 04:22:44;;;;;;;21.20;4.50;;;10.20;99.90;;;;;;5021874;28;20159;-77
2021/04/10 04:25:10;;;;;;;22.58;3.83;;;10.20;99.90;;;;;;5022262;28;20494;-78
2021/04/10 04:27:36;;;;;;;9.90;3.58;;;10.10;99.90;;;;;;5010476;28;20563;-78
2021/04/10 04:30:04;;;;;;;11.32;3.40;;;10.10;99.90;;;;;;5023377;28;20030;-77
2021/04/10 04:32:30;;;;;;;16.90;3.75;;;10.10;99.90;;;;;;5010926;28;20057;-76
2021/04/10 04:34:56;;;;;;;6.47;3.55;;;10.20;99.90;;;;;;5013285;28;20033;-77
2021/04/10 04:37:22;;;;;;;10.05;3.90;;;10.30;99.90;;;;;;5009812;28;20025;-77
2021/04/10 04:39:48;;;;;;;13.20;3.65;;;10.30;99.90;;;;;;5010264;28;20435;-77
2021/04/10 04:42:13;;;;;;;15.73;3.25;;;10.40;99.90;;;;;;5017854;28;20068;-77
2021/04/10 04:44:39;;;;;;;12.32;4.72;;;10.50;99.90;;;;;;5010491;28;20029;-78
2021/04/10 04:47:05;;;;;;;11.50;4.25;;;10.50;99.90;;;;;;5008248;28;20049;-77
2021/04/10 04:49:31;;;;;;;12.80;3.97;;;10.60;99.90;;;;;;5023444;28;20030;-77
2021/04/10 04:51:57;;;;;;;13.50;3.47;;;10.50;99.90;;;;;;5022694;28;20032;-77
2021/04/10 04:54:23;;;;;;;15.75;3.28;;;10.60;99.90;;;;;;5022943;28;20048;-78
2021/04/10 04:56:48;;;;;;;7.93;3.10;;;10.60;99.90;;;;;;5019933;28;20484;-78
2021/04/10 04:59:14;;;;;;;10.00;4.65;;;10.70;99.90;;;;;;5016787;28;20037;-77
2021/04/10 05:01:41;;;;;;;5.13;2.05;;;10.70;99.90;;;;;;5025843;28;20046;-78
2021/04/10 05:04:07;;;;;;;16.45;3.88;;;10.70;99.90;;;;;;4996664;28;20034;-79
2021/04/10 05:06:32;;;;;;;18.52;5.03;;;10.60;99.90;;;;;;5017494;28;20365;-78
2021/04/10 05:08:58;;;;;;;18.85;4.25;;;10.60;99.90;;;;;;5014612;28;20040;-77
2021/04/10 05:11:24;;;;;;;17.98;3.95;;;10.70;99.90;;;;;;5019399;28;20484;-77
2021/04/10 05:13:51;;;;;;;13.10;4.28;;;10.70;99.90;;;;;;5009147;28;20057;-78
2021/04/10 05:16:16;;;;;;;20.48;5.05;;;10.70;99.90;;;;;;5021551;28;20487;-78
2021/04/10 05:18:42;;;;;;;10.27;4.28;;;10.70;99.90;;;;;;5028037;28;20090;-78
2021/04/10 05:21:08;;;;;;;15.90;4.00;;;10.70;99.90;;;;;;5034299;28;20391;-79
2021/04/10 05:23:34;;;;;;;16.88;4.97;;;10.70;99.90;;;;;;5027832;28;20034;-78
2021/04/10 05:26:00;;;;;;;9.00;4.30;;;10.70;99.90;;;;;;5019584;28;20034;-78
2021/04/10 05:28:25;;;;;;;10.40;3.10;;;10.90;99.90;;;;;;5029979;28;20109;-77
2021/04/10 05:30:52;;;;;;;10.70;3.22;;;10.90;99.90;;;;;;5014303;28;20113;-77
2021/04/10 05:33:18;;;;;;;13.75;3.13;;;11.00;99.90;;;;;;5015416;28;20032;-77
2021/04/10 05:35:44;;;;;;;14.18;5.45;;;11.00;99.90;;;;;;5023207;28;20101;-78
2021/04/10 05:38:10;;;;;;;7.03;3.78;;;11.10;99.90;;;;;;5024582;28;20033;-78
2021/04/10 05:40:35;;;;;;;20.20;4.13;;;11.10;99.90;;;;;;5022623;28;20065;-78
2021/04/10 05:43:01;;;;;;;14.23;4.55;;;11.20;99.90;;;;;;5024879;28;20038;-78
2021/04/10 05:45:27;;;;;;;10.73;3.78;;;11.10;99.90;;;;;;5020189;28;20487;-78
2021/04/10 05:47:53;;;;;;;14.73;4.03;;;11.10;99.90;;;;;;5028712;28;20049;-77
2021/04/10 05:50:18;;;;;;;14.25;4.07;;;11.00;99.90;;;;;;5029238;28;20041;-79
2021/04/10 05:52:44;;;;;;;16.98;4.70;;;11.10;99.90;;;;;;5015163;28;20120;-79
2021/04/10 05:55:10;;;;;;;25.75;3.90;;;11.20;99.90;;;;;;5020756;28;20101;-78
2021/04/10 05:57:36;;;;;;;12.10;3.88;;;11.30;99.90;;;;;;5007532;28;20038;-79
2021/04/10 06:00:03;;;;;;;8.70;3.20;;;11.30;99.90;;;;;;5018457;28;20156;-78
2021/04/10 06:02:29;;;;;;;11.80;4.07;;;11.40;99.90;;;;;;5012651;28;20050;-77
2021/04/10 06:04:55;;;;;;;32.53;9.32;;;11.60;99.90;;;;;;5018158;28;20088;-78
2021/04/10 06:07:21;;;;;;;21.33;5.53;;;11.70;99.90;;;;;;5015764;28;20030;-78
2021/04/10 06:09:46;;;;;;;16.75;5.10;;;11.70;99.90;;;;;;5009249;28;20018;-78
2021/04/10 06:12:12;;;;;;;23.60;5.45;;;11.90;99.90;;;;;;5017303;28;20455;-78
2021/04/10 06:14:38;;;;;;;36.10;8.52;;;12.20;99.90;;;;;;5028199;28;20021;-78
2021/04/10 06:17:04;;;;;;;27.38;6.93;;;12.40;99.90;;;;;;5024585;28;20033;-78
2021/04/10 06:19:30;;;;;;;17.95;5.85;;;12.30;99.90;;;;;;5019546;28;20017;-78
2021/04/10 06:21:55;;;;;;;30.98;10.73;;;12.20;99.90;;;;;;5012329;28;20026;-78
2021/04/10 06:24:21;;;;;;;18.95;4.90;;;12.30;99.90;;;;;;5015653;28;20089;-79
2021/04/10 06:26:47;;;;;;;13.98;5.53;;;12.40;99.90;;;;;;5013945;28;20023;-79
2021/04/10 06:29:13;;;;;;;18.30;3.33;;;12.40;99.90;;;;;;5011676;28;20022;-78
2021/04/10 06:31:41;;;;;;;12.02;3.63;;;12.50;99.90;;;;;;5003762;28;20472;-78
2021/04/10 06:34:07;;;;;;;18.08;4.28;;;12.50;99.90;;;;;;5017709;28;20046;-79
2021/04/10 06:36:33;;;;;;;9.07;2.60;;;12.40;99.90;;;;;;5032021;28;20044;-78
2021/04/10 06:38:59;;;;;;;13.93;3.75;;;12.50;99.90;;;;;;5021105;28;20490;-77
2021/04/10 06:41:25;;;;;;;9.73;3.47;;;12.50;99.90;;;;;;5012305;28;20034;-79
2021/04/10 06:43:51;;;;;;;15.07;4.28;;;12.50;99.90;;;;;;5033527;28;20502;-79
2021/04/10 06:46:17;;;;;;;11.73;3.42;;;12.60;99.90;;;;;;5022640;28;20018;-78
2021/04/10 06:48:44;;;;;;;12.63;3.30;;;12.70;99.90;;;;;;5017872;28;20049;-78
2021/04/10 06:51:12;;;;;;;6.43;2.90;;;12.70;99.90;;;;;;5016818;28;20026;-78
2021/04/10 06:53:43;;;;;;;11.07;3.38;;;12.70;99.90;;;;;;5035794;28;20032;-78
2021/04/10 06:56:10;;;;;;;13.50;4.55;;;12.60;99.90;;;;;;5028157;28;20040;-78
2021/04/10 06:59:14;;;;;;;12.50;4.05;;;12.70;99.90;;;;;;5025614;28;20022;-78
2021/04/10 07:01:41;;;;;;;12.23;4.68;;;12.90;99.90;;;;;;5030508;28;20083;-78
2021/04/10 07:04:08;;;;;;;13.27;4.75;;;13.20;99.90;;;;;;5010236;28;20042;-78
2021/04/10 07:06:37;;;;;;;30.88;6.95;;;13.20;99.90;;;;;;5021308;28;20025;-79
2021/04/10 07:09:03;;;;;;;18.20;5.72;;;13.20;99.90;;;;;;5023992;28;20097;-80
2021/04/10 07:11:29;;;;;;;16.67;4.75;;;13.40;99.90;;;;;;5007124;28;20191;-79
2021/04/10 07:13:54;;;;;;;9.32;3.60;;;13.60;99.90;;;;;;5025980;28;20034;-78
2021/04/10 07:16:20;;;;;;;17.92;3.33;;;13.70;99.90;;;;;;5017574;28;20033;-78
2021/04/10 07:18:46;;;;;;;7.18;3.22;;;13.90;99.90;;;;;;5021911;28;20076;-78
2021/04/10 07:21:23;;;;;;;10.55;4.05;;;14.10;99.90;;;;;;5018172;28;20104;-79
2021/04/10 07:23:50;;;;;;;13.27;3.17;;;14.10;99.90;;;;;;5027739;28;20029;-78
2021/04/10 07:26:19;;;;;;;11.30;3.20;;;14.20;99.90;;;;;;5023579;28;20026;-79
2021/04/10 07:28:46;;;;;;;7.50;2.10;;;14.20;99.90;;;;;;5025830;28;20021;-79
2021/04/10 07:31:16;;;;;;;15.05;3.28;;;14.30;99.90;;;;;;5032419;28;20056;-79
2021/04/10 07:33:44;;;;;;;8.15;2.92;;;14.40;99.90;;;;;;5016925;28;20030;-79
2021/04/10 07:36:15;;;;;;;6.65;2.85;;;14.50;99.90;;;;;;5022571;28;20034;-79
2021/04/10 07:38:43;;;;;;;4.13;2.78;;;14.60;99.90;;;;;;5023063;28;20034;-79
2021/04/10 07:41:12;;;;;;;8.52;3.15;;;14.70;99.90;;;;;;5021023;28;20109;-78
2021/04/10 07:43:39;;;;;;;7.72;3.13;;;14.70;99.90;;;;;;5022277;28;20029;-78
2021/04/10 07:46:16;;;;;;;7.55;2.80;;;14.60;99.90;;;;;;5019270;28;20018;-77
2021/04/10 07:49:09;;;;;;;7.00;3.85;;;14.60;99.90;;;;;;5029435;28;20037;-78
2021/04/10 07:52:01;;;;;;;7.43;3.17;;;14.70;99.90;;;;;;4999625;28;20079;-78
2021/04/10 07:54:29;;;;;;;10.38;2.63;;;14.90;99.90;;;;;;5018448;28;20052;-78
2021/04/10 07:56:59;;;;;;;7.00;2.08;;;15.00;99.90;;;;;;5017393;28;20351;-77
2021/04/10 07:59:27;;;;;;;3.17;2.00;;;15.00;99.90;;;;;;5000309;28;20380;-78
2021/04/10 08:01:53;;;;;;;9.27;2.50;;;15.10;99.90;;;;;;5017033;28;20026;-78
2021/04/10 08:04:20;;;;;;;17.58;2.20;;;15.00;99.90;;;;;;5008035;28;20022;-78
2021/04/10 08:06:57;;;;;;;7.28;1.67;;;15.20;99.90;;;;;;5005819;28;20026;-78
2021/04/10 08:09:29;;;;;;;9.27;1.90;;;15.30;99.90;;;;;;5015166;28;20511;-78
2021/04/10 08:11:56;;;;;;;21.58;2.45;;;15.50;99.90;;;;;;5017888;28;20040;-79
2021/04/10 08:14:22;;;;;;;5.85;2.72;;;15.50;99.90;;;;;;5016257;28;20025;-79
2021/04/10 08:16:52;;;;;;;4.05;1.85;;;15.50;99.90;;;;;;4992879;28;20442;-78
2021/04/10 08:19:29;;;;;;;6.43;2.15;;;15.70;99.90;;;;;;5016216;28;20104;-78
2021/04/10 08:21:55;;;;;;;4.70;1.95;;;15.90;99.90;;;;;;5018684;28;20022;-79
2021/04/10 08:24:21;;;;;;;3.15;2.42;;;16.10;99.90;;;;;;5016248;28;20053;-79
2021/04/10 08:26:51;;;;;;;9.27;2.38;;;16.20;99.90;;;;;;5009896;28;20485;-78
2021/04/10 08:29:18;;;;;;;7.78;2.00;;;16.20;99.90;;;;;;5019262;28;20014;-78
2021/04/10 08:31:44;;;;;;;5.07;2.47;;;16.20;99.90;;;;;;5033967;28;20104;-79
2021/04/10 08:34:11;;;;;;;7.90;2.00;;;16.30;99.90;;;;;;5034256;28;20077;-79
2021/04/10 08:36:39;;;;;;;5.07;2.10;;;16.40;99.90;;;;;;5034970;28;20329;-78
2021/04/10 08:39:07;;;;;;;8.18;2.50;;;16.50;99.90;;;;;;5012795;28;20032;-79
2021/04/10 08:41:33;;;;;;;6.10;2.08;;;16.50;99.90;;;;;;5018728;28;20087;-79
2021/04/10 08:44:00;;;;;;;6.88;2.25;;;16.40;99.90;;;;;;5019963;28;20034;-80
2021/04/10 08:46:26;;;;;;;7.13;2.72;;;16.30;99.90;;;;;;5019487;28;20021;-78
2021/04/10 08:48:57;;;;;;;11.57;3.08;;;16.00;99.90;;;;;;5017265;28;20032;-79
2021/04/10 08:51:26;;;;;;;4.72;2.75;;;15.70;99.90;;;;;;5025545;28;20045;-79
2021/04/10 08:53:54;;;;;;;4.53;2.67;;;15.40;99.90;;;;;;5022080;28;20567;-79
2021/04/10 08:56:22;;;;;;;4.20;2.72;;;15.30;99.90;;;;;;5017082;28;20025;-79
2021/04/10 08:58:51;;;;;;;5.57;1.80;;;15.30;99.90;;;;;;5015964;28;20036;-79
2021/04/10 09:01:23;;;;;;;5.78;2.35;;;15.40;99.90;;;;;;5029646;28;20137;-80
2021/04/10 09:03:51;;;;;;;4.43;2.28;;;15.30;99.90;;;;;;5019615;28;20392;-80
2021/04/10 09:06:37;;;;;;;4.50;2.22;;;15.10;99.90;;;;;;4998746;28;20049;-79
2021/04/10 09:09:12;;;;;;;4.28;2.25;;;14.90;99.90;;;;;;4983355;28;20050;-79
2021/04/10 09:11:49;;;;;;;6.07;2.30;;;14.80;99.90;;;;;;5002481;28;20025;-79
2021/04/10 09:14:42;;;;;;;8.57;2.55;;;14.60;99.90;;;;;;5013851;28;20026;-79
2021/04/10 09:17:07;;;;;;;2.35;2.15;;;14.50;99.90;;;;;;5004416;28;20048;-78
2021/04/10 09:19:36;;;;;;;5.95;1.85;;;14.60;99.90;;;;;;4995158;28;20094;-79
2021/04/10 09:22:02;;;;;;;5.07;2.35;;;14.50;99.90;;;;;;4993596;28;20066;-79
2021/04/10 09:24:47;;;;;;;10.45;2.08;;;14.50;99.90;;;;;;4995002;28;20060;-79
2021/04/10 09:27:21;;;;;;;4.60;2.35;;;14.50;99.90;;;;;;4979636;28;20022;-79
2021/04/10 09:30:13;;;;;;;17.33;4.07;;;14.50;99.90;;;;;;4995819;28;20353;-78
2021/04/10 09:32:44;;;;;;;10.98;3.17;;;14.30;99.90;;;;;;5012054;28;20068;-79
2021/04/10 09:35:19;;;;;;;9.02;2.50;;;14.20;99.90;;;;;;5017103;28;20033;-78
2021/04/10 09:37:48;;;;;;;5.45;2.80;;;14.00;99.90;;;;;;5014413;28;20022;-79
2021/04/10 09:40:18;;;;;;;6.65;2.10;;;13.90;99.90;;;;;;5013808;28;20030;-77
2021/04/10 09:42:46;;;;;;;8.55;2.05;;;13.90;99.90;;;;;;5014071;28;20068;-79
2021/04/10 09:45:18;;;;;;;10.23;2.45;;;13.80;99.90;;;;;;5006225;28;20037;-70
2021/04/10 09:50:22;;;;;;;7.75;1.85;;;13.80;99.90;;;;;;5009962;28;20072;-68
2021/04/10 09:52:58;;;;;;;6.35;2.38;;;13.70;99.90;;;;;;5011978;28;20025;-68
2021/04/10 09:55:27;;;;;;;12.15;2.47;;;13.70;99.90;;;;;;5001984;28;20514;-69
2021/04/10 09:58:04;;;;;;;8.75;2.40;;;13.70;99.90;;;;;;5007089;28;20030;-71
2021/04/10 10:00:32;;;;;;;6.63;2.17;;;13.80;99.90;;;;;;5009893;28;20029;-69
2021/04/10 10:02:59;;;;;;;4.05;2.05;;;13.80;99.90;;;;;;5018109;28;20084;-71
2021/04/10 10:05:30;;;;;;;7.47;1.98;;;13.80;99.90;;;;;;5003467;28;20445;-71
2021/04/10 10:08:06;;;;;;;6.65;2.15;;;13.60;99.90;;;;;;5021410;28;20037;-70
2021/04/10 10:10:36;;;;;;;9.35;1.63;;;13.60;99.90;;;;;;5009711;28;20092;-69
2021/04/10 10:13:07;;;;;;;4.53;1.83;;;13.40;99.90;;;;;;5009795;28;20034;-69
2021/04/10 10:15:33;;;;;;;4.55;2.45;;;13.40;99.90;;;;;;5011802;28;20117;-69
2021/04/10 10:18:20;;;;;;;13.48;2.47;;;13.40;99.90;;;;;;5024382;28;20061;-72
2021/04/10 10:21:21;;;;;;;8.93;2.05;;;13.40;99.90;;;;;;5022173;28;20057;-69
2021/04/10 10:23:59;;;;;;;7.70;2.15;;;13.30;99.90;;;;;;5014233;28;20021;-69
2021/04/10 10:26:29;;;;;;;5.38;2.70;;;13.30;99.90;;;;;;5017347;28;20403;-70
2021/04/10 10:29:07;;;;;;;4.85;2.25;;;13.50;99.90;;;;;;5026759;28;20033;-69
2021/04/10 10:31:54;;;;;;;8.27;2.28;;;13.60;99.90;;;;;;5015967;28;20526;-69
2021/04/10 10:34:24;;;;;;;7.40;2.03;;;13.70;99.90;;;;;;5010151;28;20095;-69
2021/04/10 10:36:52;;;;;;;8.63;2.65;;;13.60;99.90;;;;;;5014882;28;20712;-68
2021/04/10 10:39:26;;;;;;;8.57;2.28;;;13.80;99.90;;;;;;5019421;28;20038;-70
2021/04/10 10:41:52;;;;;;;7.70;2.38;;;14.00;99.90;;;;;;5023720;28;20568;-69
2021/04/10 10:44:18;;;;;;;7.03;2.58;;;14.10;99.90;;;;;;5019683;28;20144;-70
2021/04/10 10:46:44;;;;;;;5.65;2.22;;;14.20;99.90;;;;;;5020379;28;20026;-69
2021/04/10 10:49:11;;;;;;;5.55;1.55;;;14.40;99.90;;;;;;5021042;28;20025;-68
2021/04/10 10:51:40;;;;;;;19.63;2.45;;;14.60;99.90;;;;;;5014323;28;20030;-70
2021/04/10 10:54:07;;;;;;;9.65;2.40;;;14.80;99.90;;;;;;5029008;28;20026;-69
2021/04/10 10:56:34;;;;;;;5.20;2.63;;;14.70;99.90;;;;;;5021029;28;20092;-70
2021/04/10 10:59:02;;;;;;;8.45;2.47;;;14.70;99.90;;;;;;5025239;28;20116;-70
2021/04/10 11:01:41;;;;;;;3.67;1.75;;;14.80;99.90;;;;;;5015671;28;20033;-70
2021/04/10 11:04:17;;;;;;;9.48;1.98;;;14.90;99.90;;;;;;5020216;28;20057;-69
2021/04/10 11:06:46;;;;;;;6.75;1.50;;;14.90;99.90;;;;;;5017468;28;20515;-68
2021/04/10 11:09:25;;;;;;;6.93;1.65;;;14.90;99.90;;;;;;5021178;28;20026;-68
2021/04/10 11:11:57;;;;;;;7.05;2.22;;;15.00;99.90;;;;;;5020106;28;20389;-69
2021/04/10 11:14:25;;;;;;;;;;;14.90;99.90;;;;;;5007888;28;20076;-69
2021/04/10 11:16:53;;;;;;;5.15;1.50;;;14.80;99.90;;;;;;5022657;28;19913;-70
2021/04/10 11:19:30;;;;;;;3.88;1.67;;;14.80;99.90;;;;;;5010188;28;20088;-70
2021/04/10 11:21:58;;;;;;;11.65;2.50;;;14.70;99.90;;;;;;5013409;28;20022;-73
2021/04/10 11:24:38;;;;;;;4.22;1.85;;;14.50;99.90;;;;;;5005175;28;20064;-70
2021/04/10 11:27:20;;;;;;;9.73;2.17;;;14.60;99.90;;;;;;5020829;28;20104;-68
2021/04/10 11:30:03;;;;;;;6.05;2.60;;;14.30;99.90;;;;;;5013715;28;20095;-69
2021/04/10 11:32:44;;;;;;;10.23;3.00;;;14.20;99.90;;;;;;5013343;28;20496;-68
2021/04/10 11:35:22;;;;;;;8.20;2.28;;;14.20;99.90;;;;;;5029867;28;20037;-68
2021/04/10 11:38:04;;;;;;;10.60;2.28;;;14.10;99.90;;;;;;5020107;28;20022;-67
2021/04/10 11:40:33;;;;;;;4.80;1.70;;;14.20;99.90;;;;;;5012021;28;20053;-69
2021/04/10 11:43:04;;;;;;;9.10;2.47;;;14.30;99.90;;;;;;5010820;28;20030;-69
2021/04/10 11:45:37;;;;;;;6.32;1.73;;;14.30;99.90;;;;;;4998621;28;20349;-69
2021/04/10 11:48:24;;;;;;;8.73;1.70;;;14.20;99.90;;;;;;5010421;28;20457;-69
2021/04/10 11:50:51;;;;;;;6.43;1.70;;;14.00;99.90;;;;;;5008132;28;20014;-69
2021/04/10 11:53:26;;;;;;;8.50;2.00;;;14.00;99.90;;;;;;5011036;28;20494;-71
2021/04/10 11:55:54;;;;;;;8.35;1.88;;;13.80;99.90;;;;;;5017073;28;20033;-70
2021/04/10 11:58:33;;;;;;;5.72;1.60;;;13.70;99.90;;;;;;5013263;28;20100;-69
2021/04/10 12:01:08;;;;;;;4.22;2.22;;;13.80;99.90;;;;;;5015825;28;20109;-70
2021/04/10 12:03:53;;;;;;;8.68;2.75;;;14.00;99.90;;;;;;5011251;28;20069;-70
2021/04/10 12:06:34;;;;;;;6.45;2.20;;;14.10;99.90;;;;;;5021935;28;20364;-68
2021/04/10 12:09:08;;;;;;;7.95;2.10;;;14.00;99.90;;;;;;5016838;28;20035;-70
2021/04/10 12:11:35;;;;;;;5.15;1.85;;;14.00;99.90;;;;;;5017827;28;20116;-71
2021/04/10 12:14:09;;;;;;;12.13;2.38;;;14.20;99.90;;;;;;5019535;28;20095;-71
2021/04/10 12:16:35;;;;;;;8.10;2.67;;;14.30;99.90;;;;;;5022750;28;20092;-69
2021/04/10 12:19:02;;;;;;;6.28;2.83;;;14.40;99.90;;;;;;5019521;28;20060;-68
2021/04/10 12:21:28;;;;;;;7.82;2.28;;;14.50;99.90;;;;;;5019770;28;20109;-72
2021/04/10 12:23:54;;;;;;;8.43;4.47;;;14.40;99.90;;;;;;5019248;28;20030;-70
2021/04/10 12:26:19;;;;;;;13.50;2.95;;;14.10;99.90;;;;;;5021483;28;20017;-68
2021/04/10 12:28:45;;;;;;;11.38;5.25;;;14.10;99.90;;;;;;5017737;28;20037;-71
2021/04/10 12:31:11;;;;;;;11.27;2.83;;;14.10;99.90;;;;;;5008925;28;20079;-70
2021/04/10 12:33:41;;;;;;;6.55;3.10;;;14.30;99.90;;;;;;5017865;28;20026;-70
2021/04/10 12:36:08;;;;;;;9.40;3.67;;;14.40;99.90;;;;;;5010259;28;20034;-69
2021/04/10 12:38:37;;;;;;;5.15;2.47;;;14.40;99.90;;;;;;5014324;28;20030;-73
2021/04/10 12:41:04;;;;;;;14.25;3.08;;;14.50;99.90;;;;;;5023447;28;20033;-70
2021/04/10 12:43:31;;;;;;;11.95;3.58;;;14.30;99.90;;;;;;5023355;28;20053;-71
2021/04/10 12:45:57;;;;;;;8.27;3.60;;;14.30;99.90;;;;;;5017607;28;20112;-69
2021/04/10 12:48:23;;;;;;;9.00;2.53;;;14.40;99.90;;;;;;5017009;28;20026;-70
2021/04/10 12:50:48;;;;;;;12.82;3.13;;;14.40;99.90;;;;;;5014796;28;20426;-71
2021/04/10 12:53:14;;;;;;;13.30;3.22;;;14.40;99.90;;;;;;5020235;28;20387;-69
2021/04/10 12:55:40;;;;;;;10.48;4.00;;;14.40;99.90;;;;;;5019327;28;20069;-70
2021/04/10 12:58:05;;;;;;;20.02;10.35;;;14.20;99.90;;;;;;5012004;28;20026;-71